createdAt,value
2019-05-20T00:02:24.444Z,67.10
2019-05-20T00:04:45.958Z,67.20
2019-05-20T00:07:16.339Z,67.80
2019-05-20T00:09:46.846Z,67.10
2019-05-20T00:12:17.290Z,67.10
2019-05-20T00:14:47.812Z,67.00
2019-05-20T00:17:18.207Z,67.30
2019-05-20T00:19:50.723Z,67.50
2019-05-20T00:22:20.713Z,67.90
2019-05-20T00:24:51.091Z,68.20
2019-05-20T00:27:21.514Z,68.50
2019-05-20T00:29:51.916Z,68.60
2019-05-20T00:32:22.351Z,68.50
2019-05-20T00:34:54.264Z,68.30
2019-05-20T00:37:24.690Z,68.40
2019-05-20T00:39:55.080Z,68.30
2019-05-20T00:42:25.611Z,68.60
2019-05-20T00:44:56.050Z,69.00
2019-05-20T00:47:26.474Z,69.60
2019-05-20T00:49:58.313Z,69.90
2019-05-20T00:52:28.810Z,70.00
2019-05-20T00:55:00.666Z,70.00
2019-05-20T00:57:31.374Z,70.40
2019-05-20T01:00:02.005Z,70.50
2019-05-20T01:02:32.942Z,70.90
2019-05-20T01:05:03.388Z,71.10
2019-05-20T01:07:34.601Z,71.10
2019-05-20T01:10:06.374Z,71.30
2019-05-20T01:12:36.751Z,71.60
2019-05-20T01:15:09.202Z,71.80
2019-05-20T01:17:41.055Z,72.20
2019-05-20T01:20:11.773Z,72.50
2019-05-20T01:22:42.146Z,72.90
2019-05-20T01:25:13.781Z,72.90
2019-05-20T01:27:44.203Z,73.10
2019-05-20T01:30:15.267Z,73.20
2019-05-20T01:32:47.361Z,73.30
2019-05-20T01:35:17.778Z,73.50
2019-05-20T01:37:49.654Z,73.30
2019-05-20T01:40:20.130Z,73.10
2019-05-20T01:42:50.506Z,73.40
2019-05-20T01:45:20.911Z,73.70
2019-05-20T01:47:51.447Z,73.90
2019-05-20T01:50:21.878Z,74.00
2019-05-20T01:52:52.254Z,74.00
2019-05-20T01:55:23.487Z,74.00
2019-05-20T01:57:53.943Z,74.10
2019-05-20T02:00:24.341Z,73.80
2019-05-20T02:02:54.734Z,74.00
2019-05-20T02:05:26.624Z,73.90
2019-05-20T02:07:57.077Z,74.20
2019-05-20T02:10:27.581Z,74.60
2019-05-20T02:12:58.798Z,74.60
2019-05-20T02:15:30.858Z,74.90
2019-05-20T02:18:01.246Z,75.20
2019-05-20T02:20:31.730Z,75.60
2019-05-20T02:23:18.450Z,76.20
2019-05-20T02:25:49.766Z,75.90
2019-05-20T02:28:20.247Z,76.70
2019-05-20T02:30:50.655Z,76.90
2019-05-20T02:33:21.062Z,77.30
2019-05-20T02:35:52.914Z,77.50
2019-05-20T02:38:23.675Z,77.80
2019-05-20T02:40:54.132Z,77.80
2019-05-20T02:43:24.548Z,78.10
2019-05-20T02:45:54.932Z,78.20
2019-05-20T02:48:25.416Z,78.60
2019-05-20T02:50:55.797Z,78.70
2019-05-20T02:53:26.207Z,78.80
2019-05-20T02:55:57.437Z,79.70
2019-05-20T02:58:27.857Z,79.00
2019-05-20T03:00:58.252Z,79.50
2019-05-20T03:03:28.623Z,79.80
2019-05-20T03:05:59.052Z,80.10
2019-05-20T03:08:29.428Z,80.10
2019-05-20T03:10:59.913Z,80.20
2019-05-20T03:13:30.357Z,80.70
2019-05-20T03:16:00.790Z,80.50
2019-05-20T03:18:31.234Z,80.70
2019-05-20T03:21:01.640Z,80.50
2019-05-20T03:23:32.054Z,80.90
2019-05-20T03:26:02.447Z,81.00
2019-05-20T03:28:33.043Z,81.10
2019-05-20T03:31:03.580Z,81.30
2019-05-20T03:33:34.075Z,80.20
2019-05-20T03:36:05.361Z,79.60
2019-05-20T03:38:35.778Z,79.90
2019-05-20T03:41:06.164Z,80.00
2019-05-20T03:43:36.632Z,80.40
2019-05-20T03:46:07.118Z,80.40
2019-05-20T03:48:37.575Z,80.70
2019-05-20T03:51:07.988Z,80.80
2019-05-20T03:53:38.383Z,81.10
2019-05-20T03:56:10.333Z,81.20
2019-05-20T03:58:40.799Z,81.20
2019-05-20T04:01:11.280Z,81.00
2019-05-20T04:03:41.761Z,81.20
2019-05-20T04:06:12.260Z,81.10
2019-05-20T04:08:44.175Z,81.10
2019-05-20T04:11:14.595Z,81.20
2019-05-20T04:13:44.979Z,80.50
2019-05-20T04:16:15.474Z,80.40
2019-05-20T04:18:45.918Z,80.60
2019-05-20T04:21:16.342Z,80.30
2019-05-20T04:23:48.344Z,79.90
2019-05-20T04:26:18.839Z,79.80
2019-05-20T04:28:50.815Z,79.70
2019-05-20T04:31:21.758Z,79.80
2019-05-20T04:33:52.206Z,79.70
2019-05-20T04:36:22.691Z,79.10
2019-05-20T04:38:54.637Z,79.80
2019-05-20T04:41:25.226Z,79.90
2019-05-20T04:43:55.854Z,79.70
2019-05-20T04:46:26.382Z,79.50
2019-05-20T04:48:59.163Z,79.20
2019-05-20T04:51:29.578Z,79.30
2019-05-20T04:54:01.532Z,78.90
2019-05-20T04:56:31.949Z,79.50
2019-05-20T04:59:02.377Z,79.10
2019-05-20T05:01:32.791Z,78.80
2019-05-20T05:04:03.254Z,78.10
2019-05-20T05:06:35.125Z,78.10
2019-05-20T05:09:06.910Z,78.30
2019-05-20T05:11:37.343Z,78.70
2019-05-20T05:14:08.003Z,78.60
2019-05-20T05:16:39.966Z,78.50
2019-05-20T05:19:10.346Z,78.20
2019-05-20T05:21:40.760Z,78.50
2019-05-20T05:24:11.217Z,78.40
2019-05-20T05:26:41.673Z,77.90
2019-05-20T05:29:12.170Z,77.50
2019-05-20T05:31:44.049Z,77.30
2019-05-20T05:34:14.463Z,77.30
2019-05-20T05:36:44.979Z,77.50
2019-05-20T05:39:15.395Z,77.90
2019-05-20T05:41:45.858Z,78.30
2019-05-20T05:44:16.294Z,78.90
2019-05-20T05:46:48.184Z,79.80
2019-05-20T05:49:18.643Z,80.30
2019-05-20T05:51:50.528Z,80.10
2019-05-20T05:54:22.363Z,80.30
2019-05-20T05:56:52.782Z,80.40
2019-05-20T05:59:23.178Z,80.10
2019-05-20T06:01:53.639Z,79.50
2019-05-20T06:04:24.175Z,79.20
2019-05-20T06:06:54.572Z,79.80
2019-05-20T06:09:24.964Z,79.90
2019-05-20T06:11:55.381Z,79.10
2019-05-20T06:14:25.760Z,79.30
2019-05-20T06:16:56.169Z,78.80
2019-05-20T06:19:26.542Z,78.60
2019-05-20T06:21:57.075Z,78.60
2019-05-20T06:24:27.445Z,78.60
2019-05-20T06:26:57.869Z,77.90
2019-05-20T06:29:29.785Z,77.10
2019-05-20T06:32:00.263Z,76.60
2019-05-20T06:34:30.658Z,76.70
2019-05-20T06:37:05.888Z,76.00
2019-05-20T06:39:36.430Z,76.80
2019-05-20T06:42:07.687Z,75.60
2019-05-20T06:44:51.755Z,74.90
2019-05-20T06:47:10.258Z,75.20
2019-05-20T06:49:40.757Z,75.70
2019-05-20T06:52:11.207Z,74.80
2019-05-20T06:54:41.652Z,75.10
2019-05-20T06:57:12.280Z,75.30
2019-05-20T06:59:42.719Z,76.00
2019-05-20T07:02:13.119Z,75.70
2019-05-20T07:04:43.566Z,75.60
2019-05-20T07:07:21.075Z,76.40
2019-05-20T07:09:46.075Z,76.90
2019-05-20T07:12:16.481Z,77.00
2019-05-20T07:14:47.053Z,76.70
2019-05-20T07:17:17.464Z,76.70
2019-05-20T07:19:47.852Z,77.20
2019-05-20T07:22:18.299Z,76.10
2019-05-20T07:24:50.284Z,75.90
2019-05-20T07:27:20.705Z,76.20
2019-05-20T07:29:52.567Z,75.70
2019-05-20T07:32:23.014Z,76.10
2019-05-20T07:34:53.442Z,75.20
2019-05-20T07:37:23.967Z,75.20
2019-05-20T07:39:54.507Z,73.70
2019-05-20T07:42:24.935Z,73.80
2019-05-20T07:44:55.369Z,73.00
2019-05-20T07:47:25.830Z,73.10
2019-05-20T07:49:56.245Z,68.30
2019-05-20T07:52:28.093Z,67.50
2019-05-20T07:55:00.388Z,67.10
2019-05-20T08:00:02.544Z,62.70
2019-05-20T08:02:33.275Z,63.70
2019-05-20T08:05:06.218Z,62.70
2019-05-20T08:07:51.314Z,60.40
2019-05-20T08:10:10.482Z,58.40
2019-05-20T08:12:42.452Z,58.10
2019-05-20T08:15:13.007Z,58.10
2019-05-20T08:17:43.435Z,57.40
2019-05-20T08:20:14.497Z,56.20
2019-05-20T08:22:44.987Z,54.60
2019-05-20T08:25:15.462Z,52.20
2019-05-20T08:27:45.948Z,46.10
2019-05-20T08:30:19.280Z,44.10
2019-05-20T08:32:49.869Z,42.30
2019-05-20T08:35:23.659Z,43.90
2019-05-20T08:37:52.390Z,46.20
2019-05-20T08:40:24.283Z,46.00
2019-05-20T08:42:54.755Z,44.70
2019-05-20T08:45:26.606Z,43.40
2019-05-20T08:47:57.097Z,42.30
2019-05-20T08:50:29.093Z,39.50
2019-05-20T08:52:59.529Z,37.50
2019-05-20T08:55:30.484Z,40.10
2019-05-20T08:58:01.093Z,41.10
2019-05-20T09:00:31.882Z,43.60
2019-05-20T09:03:02.328Z,44.80
2019-05-20T09:05:32.718Z,45.00
2019-05-20T09:08:04.121Z,46.10
2019-05-20T09:10:35.013Z,48.10
2019-05-20T09:13:05.790Z,48.40
2019-05-20T09:15:36.180Z,46.00
2019-05-20T09:18:06.669Z,46.50
2019-05-20T09:20:37.270Z,48.20
2019-05-20T09:23:09.195Z,49.30
2019-05-20T09:25:39.731Z,50.10
2019-05-20T09:28:10.142Z,51.90
2019-05-20T09:30:40.723Z,54.30
2019-05-20T09:33:11.207Z,56.90
2019-05-20T09:35:42.054Z,59.40
2019-05-20T09:38:20.250Z,61.00
2019-05-20T09:40:47.106Z,62.50
2019-05-20T09:43:17.759Z,63.60
2019-05-20T09:46:04.141Z,64.20
2019-05-20T09:48:20.304Z,63.90
2019-05-20T09:50:50.759Z,63.80
2019-05-20T09:53:23.936Z,63.90
2019-05-20T09:55:54.436Z,60.50
2019-05-20T09:58:25.809Z,57.60
2019-05-20T10:00:56.256Z,55.30
2019-05-20T10:03:26.648Z,52.30
2019-05-20T10:05:57.076Z,52.40
2019-05-20T10:08:37.651Z,51.60
2019-05-20T10:11:02.462Z,52.10
2019-05-20T10:13:32.894Z,52.40
2019-05-20T10:16:03.304Z,52.10
2019-05-20T10:18:38.157Z,51.80
2019-05-20T10:21:07.430Z,52.20
2019-05-20T10:23:39.535Z,52.70
2019-05-20T10:26:11.638Z,53.70
2019-05-20T10:28:46.519Z,54.30
2019-05-20T10:31:14.288Z,53.50
2019-05-20T10:33:45.504Z,53.40
2019-05-20T10:36:16.741Z,54.10
2019-05-20T10:38:57.724Z,53.40
2019-05-20T10:41:19.233Z,53.00
2019-05-20T10:43:49.642Z,53.90
2019-05-20T10:46:20.062Z,54.00
2019-05-20T10:48:50.438Z,53.00
2019-05-20T10:51:20.839Z,52.20
2019-05-20T10:53:51.202Z,52.70
2019-05-20T10:56:21.683Z,51.90
2019-05-20T10:58:52.108Z,51.20
2019-05-20T11:01:22.701Z,52.00
2019-05-20T11:03:53.295Z,52.00
2019-05-20T11:06:23.749Z,51.80
2019-05-20T11:08:54.221Z,52.20
2019-05-20T11:11:24.605Z,51.30
2019-05-20T11:13:55.136Z,50.10
2019-05-20T11:16:25.575Z,50.10
2019-05-20T11:18:58.367Z,49.00
2019-05-20T11:21:28.739Z,48.30
2019-05-20T11:24:00.706Z,47.90
2019-05-20T11:26:31.155Z,46.30
2019-05-20T11:29:03.128Z,46.40
2019-05-20T11:31:35.246Z,47.00
2019-05-20T11:34:05.960Z,48.10
2019-05-20T11:36:36.407Z,47.30
2019-05-20T11:39:07.755Z,47.80
2019-05-20T11:41:52.852Z,47.30
2019-05-20T11:44:12.033Z,46.70
2019-05-20T11:46:42.595Z,46.70
2019-05-20T11:49:13.045Z,47.40
2019-05-20T11:51:43.614Z,48.40
2019-05-20T11:54:15.497Z,48.60
2019-05-20T11:56:45.869Z,48.30
2019-05-20T11:59:16.315Z,48.00
2019-05-20T12:01:46.794Z,47.20
2019-05-20T12:04:17.199Z,47.30
2019-05-20T12:06:47.657Z,47.00
2019-05-20T12:09:19.546Z,46.80
2019-05-20T12:11:49.990Z,46.10
2019-05-20T12:14:20.503Z,45.70
2019-05-20T12:16:50.886Z,46.50
2019-05-20T12:19:21.373Z,47.20
2019-05-20T12:21:51.773Z,55.20
2019-05-20T12:24:22.201Z,60.60
2019-05-20T12:26:54.036Z,64.90
2019-05-20T12:29:24.449Z,68.10
2019-05-20T12:31:54.888Z,70.00
2019-05-20T12:34:25.303Z,71.50
2019-05-20T12:36:58.775Z,71.90
2019-05-20T12:39:29.183Z,71.20
2019-05-20T12:42:01.246Z,71.20
2019-05-20T12:44:33.271Z,71.20
2019-05-20T12:47:05.117Z,71.60
2019-05-20T12:49:35.798Z,67.50
2019-05-20T12:52:06.359Z,67.20
2019-05-20T12:54:36.817Z,64.90
2019-05-20T12:57:07.253Z,64.60
2019-05-20T12:59:37.691Z,64.70
2019-05-20T13:02:10.489Z,63.10
2019-05-20T13:04:40.967Z,63.40
2019-05-20T13:07:11.426Z,62.00
2019-05-20T13:09:41.899Z,62.30
2019-05-20T13:12:12.438Z,61.90
2019-05-20T13:14:42.857Z,60.00
2019-05-20T13:17:13.258Z,59.30
2019-05-20T13:19:43.651Z,58.90
2019-05-20T13:22:14.032Z,57.80
2019-05-20T13:24:44.406Z,56.00
2019-05-20T13:27:16.291Z,55.30
2019-05-20T13:29:46.739Z,53.90
2019-05-20T13:32:17.196Z,53.40
2019-05-20T13:34:47.614Z,53.60
2019-05-20T13:37:18.033Z,53.70
2019-05-20T13:39:48.567Z,54.00
2019-05-20T13:42:19.002Z,52.70
2019-05-20T13:44:49.447Z,50.50
2019-05-20T13:47:19.917Z,51.60
2019-05-20T13:49:50.423Z,51.20
2019-05-20T13:52:21.684Z,50.70
2019-05-20T13:54:52.996Z,50.30
2019-05-20T13:57:23.645Z,50.70
2019-05-20T13:59:55.796Z,50.60
2019-05-20T14:02:27.840Z,50.40
2019-05-20T14:04:58.223Z,50.30
2019-05-20T14:07:28.711Z,49.80
2019-05-20T14:09:59.142Z,49.60
2019-05-20T14:12:29.574Z,49.70
2019-05-20T14:15:01.458Z,49.80
2019-05-20T14:17:31.932Z,50.00
2019-05-20T14:20:02.633Z,49.30
2019-05-20T14:22:36.279Z,48.80
2019-05-20T14:25:08.235Z,48.50
2019-05-20T14:27:38.687Z,48.60
2019-05-20T14:30:10.700Z,49.00
2019-05-20T14:32:41.120Z,49.30
2019-05-20T14:35:12.110Z,49.10
2019-05-20T14:37:42.505Z,50.20
2019-05-20T14:40:13.162Z,51.00
2019-05-20T14:42:43.593Z,51.20
2019-05-20T14:45:14.032Z,51.90
2019-05-20T14:47:44.502Z,52.00
2019-05-20T14:50:15.350Z,52.40
2019-05-20T14:52:47.435Z,52.80
2019-05-20T14:55:17.893Z,53.20
2019-05-20T14:57:48.389Z,53.30
2019-05-20T15:00:18.887Z,53.30
2019-05-20T15:02:50.747Z,53.20
2019-05-20T15:05:21.183Z,52.80
2019-05-20T15:07:51.689Z,53.30
2019-05-20T15:10:22.118Z,53.30
2019-05-20T15:12:54.661Z,53.30
2019-05-20T15:15:25.486Z,53.30
2019-05-20T15:17:55.946Z,53.00
2019-05-20T15:20:26.436Z,53.20
2019-05-20T15:22:58.390Z,53.30
2019-05-20T15:25:28.814Z,53.10
2019-05-20T15:27:59.358Z,50.70
2019-05-20T15:30:29.851Z,50.20
2019-05-20T15:33:00.255Z,49.70
2019-05-20T15:35:30.655Z,49.70
2019-05-20T15:38:01.028Z,50.10
2019-05-20T15:40:31.478Z,50.80
2019-05-20T15:43:01.963Z,51.30
2019-05-20T15:45:32.453Z,51.90
2019-05-20T15:48:02.818Z,52.10
2019-05-20T15:50:33.237Z,52.20
2019-05-20T15:53:03.881Z,52.50
2019-05-20T15:55:34.460Z,52.80
2019-05-20T15:58:04.869Z,52.90
2019-05-20T16:00:35.353Z,52.60
2019-05-20T16:03:07.198Z,52.50
2019-05-20T16:05:37.657Z,51.90
2019-05-20T16:08:08.025Z,51.70
2019-05-20T16:10:41.559Z,51.20
2019-05-20T16:13:12.129Z,50.90
2019-05-20T16:15:42.639Z,51.20
2019-05-20T16:18:13.033Z,51.60
2019-05-20T16:20:43.778Z,51.80
2019-05-20T16:23:15.110Z,52.40
2019-05-20T16:25:45.712Z,52.70
2019-05-20T16:28:16.157Z,53.00
2019-05-20T16:30:46.561Z,53.30
2019-05-20T16:33:17.160Z,53.60
2019-05-20T16:35:50.417Z,53.60
2019-05-20T16:38:20.877Z,53.40
2019-05-20T16:40:51.293Z,53.40
2019-05-20T16:43:23.318Z,53.50
2019-05-20T16:45:54.000Z,54.10
2019-05-20T16:48:27.607Z,54.90
2019-05-20T16:50:59.731Z,55.60
2019-05-20T16:53:30.103Z,56.30
2019-05-20T16:56:02.016Z,57.00
2019-05-20T16:58:32.569Z,57.40
2019-05-20T17:01:03.143Z,58.00
2019-05-20T17:03:33.767Z,58.40
2019-05-20T17:06:04.267Z,58.50
2019-05-20T17:08:34.783Z,58.60
2019-05-20T17:11:06.770Z,58.60
2019-05-20T17:13:37.210Z,58.70
2019-05-20T17:16:09.146Z,58.70
2019-05-20T17:18:39.697Z,59.00
2019-05-20T17:21:10.065Z,59.30
2019-05-20T17:23:40.541Z,59.50
2019-05-20T17:26:11.006Z,59.60
2019-05-20T17:28:41.415Z,59.70
2019-05-20T17:31:13.261Z,59.70
2019-05-20T17:33:43.773Z,59.50
2019-05-20T17:36:14.161Z,58.80
2019-05-20T17:38:46.061Z,57.90
2019-05-20T17:41:16.497Z,57.70
2019-05-20T17:43:46.904Z,57.80
2019-05-20T17:46:17.604Z,57.40
2019-05-20T17:48:49.568Z,56.80
2019-05-20T17:51:20.022Z,56.70
2019-05-20T17:53:50.494Z,56.60
2019-05-20T17:56:20.927Z,56.90
2019-05-20T17:58:51.518Z,57.50
2019-05-20T18:01:23.378Z,58.10
2019-05-20T18:03:53.808Z,58.50
2019-05-20T18:06:24.210Z,58.70
2019-05-20T18:08:56.201Z,58.80
2019-05-20T18:11:26.611Z,59.00
2019-05-20T18:13:58.553Z,59.00
2019-05-20T18:16:29.062Z,59.00
2019-05-20T18:18:59.580Z,59.30
2019-05-20T18:21:30.030Z,59.30
2019-05-20T18:24:00.744Z,59.50
2019-05-20T18:26:31.192Z,59.60
2019-05-20T18:29:01.751Z,59.60
2019-05-20T18:31:33.092Z,59.60
2019-05-20T18:34:03.795Z,59.70
2019-05-20T18:36:34.233Z,59.80
2019-05-20T18:39:06.229Z,59.80
2019-05-20T18:41:36.779Z,60.00
2019-05-20T18:44:08.679Z,60.10
2019-05-20T18:46:39.053Z,60.20
2019-05-20T18:49:11.053Z,60.30
2019-05-20T18:51:41.496Z,60.40
2019-05-20T18:54:12.072Z,60.40
2019-05-20T18:56:42.627Z,60.50
2019-05-20T18:59:13.104Z,60.60
2019-05-20T19:01:55.812Z,60.50
2019-05-20T19:04:15.637Z,60.60
2019-05-20T19:06:46.042Z,60.60
2019-05-20T19:09:16.477Z,60.60
2019-05-20T19:11:47.014Z,60.50
2019-05-20T19:14:17.489Z,60.70
2019-05-20T19:16:49.428Z,60.70
2019-05-20T19:19:22.334Z,60.60
2019-05-20T19:21:55.540Z,60.70
2019-05-20T19:24:26.217Z,60.80
2019-05-20T19:26:56.622Z,61.10
2019-05-20T19:29:27.254Z,61.10
2019-05-20T19:32:01.771Z,61.30
2019-05-20T19:34:29.851Z,61.50
2019-05-20T19:37:00.575Z,61.60
2019-05-20T19:39:32.556Z,61.70
2019-05-20T19:42:03.196Z,61.70
2019-05-20T19:44:33.927Z,61.90
2019-05-20T19:47:04.468Z,62.00
2019-05-20T19:49:34.833Z,62.00
2019-05-20T19:52:05.466Z,62.00
2019-05-20T19:54:37.318Z,62.00
2019-05-20T19:57:08.602Z,62.00
2019-05-20T19:59:38.977Z,62.00
2019-05-20T20:02:17.061Z,61.90
2019-05-20T20:04:42.933Z,61.90
2019-05-20T20:07:13.470Z,61.90
2019-05-20T20:09:43.858Z,61.90
2019-05-20T20:12:15.852Z,62.00
2019-05-20T20:14:46.247Z,62.00
2019-05-20T20:17:16.686Z,61.90
2019-05-20T20:19:48.632Z,62.00
2019-05-20T20:22:19.029Z,62.00
2019-05-20T20:24:49.968Z,62.20
2019-05-20T20:27:20.510Z,62.30
2019-05-20T20:29:50.966Z,62.40
2019-05-20T20:32:36.775Z,62.40
2019-05-20T20:34:57.345Z,62.50
2019-05-20T20:37:27.735Z,62.80
2019-05-20T20:39:58.483Z,62.90
2019-05-20T20:42:28.959Z,63.10
2019-05-20T20:45:00.941Z,63.00
2019-05-20T20:47:41.243Z,63.10
2019-05-20T20:50:06.036Z,62.90
2019-05-20T20:52:36.583Z,62.80
2019-05-20T20:55:07.650Z,62.70
2019-05-20T20:57:39.522Z,62.30
2019-05-20T21:00:12.012Z,62.20
2019-05-20T21:02:52.892Z,62.20
2019-05-20T21:05:16.118Z,62.10
2019-05-20T21:07:46.538Z,62.10
2019-05-20T21:10:17.033Z,62.00
2019-05-20T21:12:47.519Z,62.10
2019-05-20T21:15:17.963Z,62.30
2019-05-20T21:17:49.929Z,62.40
2019-05-20T21:20:20.323Z,62.50
2019-05-20T21:22:50.739Z,62.60
2019-05-20T21:25:22.573Z,62.60
2019-05-20T21:27:53.056Z,62.50
2019-05-20T21:30:24.947Z,62.60
2019-05-20T21:33:08.789Z,62.70
2019-05-20T21:35:29.025Z,62.90
2019-05-20T21:37:59.523Z,63.00
2019-05-20T21:40:31.375Z,63.10
2019-05-20T21:43:01.830Z,63.20
2019-05-20T21:45:32.287Z,63.30
2019-05-20T21:48:02.678Z,63.30
2019-05-20T21:50:33.088Z,63.20
2019-05-20T21:53:03.564Z,63.30
2019-05-20T21:55:34.044Z,63.50
2019-05-20T21:58:04.592Z,63.60
2019-05-20T22:00:42.542Z,63.80
2019-05-20T22:03:24.617Z,63.80
2019-05-20T22:05:50.041Z,63.60
2019-05-20T22:08:20.508Z,63.60
2019-05-20T22:10:52.377Z,63.80
2019-05-20T22:13:22.759Z,64.10
2019-05-20T22:15:53.181Z,64.30
2019-05-20T22:18:23.561Z,64.30
2019-05-20T22:20:54.072Z,64.40
2019-05-20T22:23:26.061Z,64.30
2019-05-20T22:25:58.071Z,64.40
2019-05-20T22:28:28.524Z,64.50
2019-05-20T22:30:58.934Z,64.50
2019-05-20T22:33:40.930Z,64.70
2019-05-20T22:36:01.470Z,64.70
2019-05-20T22:38:31.839Z,64.80
2019-05-20T22:41:04.530Z,64.90
2019-05-20T22:43:36.369Z,65.10
2019-05-20T22:46:06.781Z,65.00
2019-05-20T22:48:37.172Z,65.20
2019-05-20T22:51:07.601Z,65.50
2019-05-20T22:53:38.017Z,65.60
2019-05-20T22:56:08.477Z,65.60
2019-05-20T22:58:38.868Z,65.60
2019-05-20T23:01:09.238Z,65.80
2019-05-20T23:03:55.377Z,66.10
2019-05-20T23:06:13.385Z,66.20
2019-05-20T23:08:43.874Z,66.00
2019-05-20T23:11:15.083Z,66.10
2019-05-20T23:13:45.655Z,66.20
2019-05-20T23:16:16.143Z,66.40
2019-05-20T23:18:46.719Z,66.50
2019-05-20T23:21:17.133Z,66.70
2019-05-20T23:23:47.571Z,67.10
2019-05-20T23:26:17.938Z,67.50
2019-05-20T23:28:48.342Z,67.90
2019-05-20T23:31:19.729Z,68.10
2019-05-20T23:33:50.117Z,68.20
2019-05-20T23:36:20.485Z,68.40
2019-05-20T23:38:50.926Z,68.70
2019-05-20T23:41:21.297Z,68.80
2019-05-20T23:43:51.682Z,68.90
2019-05-20T23:46:22.092Z,69.10
2019-05-20T23:48:52.520Z,69.30
2019-05-20T23:51:22.934Z,69.30
2019-05-20T23:53:53.390Z,69.70
2019-05-20T23:56:23.803Z,70.50
2019-05-20T23:58:54.177Z,69.70
